sensor_id;sensor_type;location;lat;lon;timestamp;P1;durP1;ratioP1;P2;durP2;ratioP2
70780;SDS011;59514;48.810;2.134;2022-09-09T00:00:26;6.57;;;2.15;;
70780;SDS011;59514;48.810;2.134;2022-09-09T00:02:59;6.85;;;1.88;;
70780;SDS011;59514;48.810;2.134;2022-09-09T00:05:35;6.40;;;2.05;;
70780;SDS011;59514;48.810;2.134;2022-09-09T00:08:11;6.53;;;1.67;;
70780;SDS011;59514;48.810;2.134;2022-09-09T00:10:56;6.95;;;1.70;;
70780;SDS011;59514;48.810;2.134;2022-09-09T00:18:48;7.80;;;2.67;;
70780;SDS011;59514;48.810;2.134;2022-09-09T00:21:20;6.75;;;1.73;;
70780;SDS011;59514;48.810;2.134;2022-09-09T00:23:56;5.90;;;1.83;;
70780;SDS011;59514;48.810;2.134;2022-09-09T00:28:56;6.15;;;1.70;;
70780;SDS011;59514;48.810;2.134;2022-09-09T00:31:29;6.60;;;2.03;;
70780;SDS011;59514;48.810;2.134;2022-09-09T00:36:43;6.05;;;1.67;;
70780;SDS011;59514;48.810;2.134;2022-09-09T00:39:24;10.10;;;2.35;;
70780;SDS011;59514;48.810;2.134;2022-09-09T00:41:57;5.25;;;1.95;;
70780;SDS011;59514;48.810;2.134;2022-09-09T00:44:33;7.10;;;1.65;;
70780;SDS011;59514;48.810;2.134;2022-09-09T00:49:39;7.88;;;2.45;;
70780;SDS011;59514;48.810;2.134;2022-09-09T00:57:46;8.13;;;1.92;;
70780;SDS011;59514;48.810;2.134;2022-09-09T01:00:30;5.35;;;1.67;;
70780;SDS011;59514;48.810;2.134;2022-09-09T01:08:39;7.38;;;2.28;;
70780;SDS011;59514;48.810;2.134;2022-09-09T01:11:22;9.15;;;2.13;;
70780;SDS011;59514;48.810;2.134;2022-09-09T01:14:01;7.95;;;2.20;;
70780;SDS011;59514;48.810;2.134;2022-09-09T01:16:37;9.82;;;2.20;;
70780;SDS011;59514;48.810;2.134;2022-09-09T01:19:03;9.18;;;2.03;;
70780;SDS011;59514;48.810;2.134;2022-09-09T01:21:41;7.78;;;1.90;;
70780;SDS011;59514;48.810;2.134;2022-09-09T01:24:20;8.85;;;2.25;;
70780;SDS011;59514;48.810;2.134;2022-09-09T01:26:52;6.97;;;1.73;;
70780;SDS011;59514;48.810;2.134;2022-09-09T01:29:25;11.73;;;2.60;;
70780;SDS011;59514;48.810;2.134;2022-09-09T01:32:00;9.48;;;2.47;;
70780;SDS011;59514;48.810;2.134;2022-09-09T01:34:31;8.50;;;1.70;;
70780;SDS011;59514;48.810;2.134;2022-09-09T01:37:07;9.45;;;2.08;;
70780;SDS011;59514;48.810;2.134;2022-09-09T01:39:36;8.57;;;2.28;;
70780;SDS011;59514;48.810;2.134;2022-09-09T01:42:04;7.47;;;1.90;;
70780;SDS011;59514;48.810;2.134;2022-09-09T01:44:31;8.27;;;2.30;;
70780;SDS011;59514;48.810;2.134;2022-09-09T01:46:57;8.13;;;2.10;;
70780;SDS011;59514;48.810;2.134;2022-09-09T01:49:23;7.90;;;2.10;;
70780;SDS011;59514;48.810;2.134;2022-09-09T01:51:50;7.88;;;2.17;;
70780;SDS011;59514;48.810;2.134;2022-09-09T01:54:18;8.65;;;2.47;;
70780;SDS011;59514;48.810;2.134;2022-09-09T01:57:06;9.77;;;2.00;;
70780;SDS011;59514;48.810;2.134;2022-09-09T01:59:40;10.65;;;2.33;;
70780;SDS011;59514;48.810;2.134;2022-09-09T02:04:45;6.28;;;2.10;;
70780;SDS011;59514;48.810;2.134;2022-09-09T02:10:02;9.80;;;1.80;;
70780;SDS011;59514;48.810;2.134;2022-09-09T02:12:45;6.85;;;2.50;;
70780;SDS011;59514;48.810;2.134;2022-09-09T02:16:03;8.40;;;2.20;;
70780;SDS011;59514;48.810;2.134;2022-09-09T02:18:08;7.00;;;1.80;;
70780;SDS011;59514;48.810;2.134;2022-09-09T02:20:37;8.88;;;2.30;;
70780;SDS011;59514;48.810;2.134;2022-09-09T02:23:04;11.90;;;2.78;;
70780;SDS011;59514;48.810;2.134;2022-09-09T02:25:32;7.18;;;2.08;;
70780;SDS011;59514;48.810;2.134;2022-09-09T02:27:59;7.50;;;1.88;;
70780;SDS011;59514;48.810;2.134;2022-09-09T02:30:27;10.52;;;2.10;;
70780;SDS011;59514;48.810;2.134;2022-09-09T02:32:56;9.38;;;2.22;;
70780;SDS011;59514;48.810;2.134;2022-09-09T02:35:24;7.70;;;2.00;;
70780;SDS011;59514;48.810;2.134;2022-09-09T02:37:53;9.73;;;2.63;;
70780;SDS011;59514;48.810;2.134;2022-09-09T02:40:21;10.70;;;2.50;;
70780;SDS011;59514;48.810;2.134;2022-09-09T02:42:47;9.88;;;1.83;;
70780;SDS011;59514;48.810;2.134;2022-09-09T02:45:15;11.00;;;2.22;;
70780;SDS011;59514;48.810;2.134;2022-09-09T02:50:33;12.45;;;2.75;;
70780;SDS011;59514;48.810;2.134;2022-09-09T02:58:04;9.27;;;2.20;;
70780;SDS011;59514;48.810;2.134;2022-09-09T03:00:32;11.00;;;2.13;;
70780;SDS011;59514;48.810;2.134;2022-09-09T03:03:01;7.53;;;2.10;;
70780;SDS011;59514;48.810;2.134;2022-09-09T03:05:27;10.38;;;2.40;;
70780;SDS011;59514;48.810;2.134;2022-09-09T03:07:53;5.55;;;1.90;;
70780;SDS011;59514;48.810;2.134;2022-09-09T03:10:18;10.30;;;3.00;;
70780;SDS011;59514;48.810;2.134;2022-09-09T03:12:44;11.05;;;2.83;;
70780;SDS011;59514;48.810;2.134;2022-09-09T03:15:09;7.72;;;2.85;;
70780;SDS011;59514;48.810;2.134;2022-09-09T03:17:35;8.90;;;2.45;;
70780;SDS011;59514;48.810;2.134;2022-09-09T03:20:01;12.07;;;2.60;;
70780;SDS011;59514;48.810;2.134;2022-09-09T03:22:28;11.02;;;2.55;;
70780;SDS011;59514;48.810;2.134;2022-09-09T03:24:53;7.78;;;2.20;;
70780;SDS011;59514;48.810;2.134;2022-09-09T03:27:18;11.93;;;2.15;;
70780;SDS011;59514;48.810;2.134;2022-09-09T03:29:44;9.13;;;2.50;;
70780;SDS011;59514;48.810;2.134;2022-09-09T03:32:10;10.30;;;2.65;;
70780;SDS011;59514;48.810;2.134;2022-09-09T03:34:35;8.50;;;2.28;;
70780;SDS011;59514;48.810;2.134;2022-09-09T03:37:04;11.50;;;1.80;;
70780;SDS011;59514;48.810;2.134;2022-09-09T03:39:30;8.25;;;2.45;;
70780;SDS011;59514;48.810;2.134;2022-09-09T03:41:55;11.85;;;2.90;;
70780;SDS011;59514;48.810;2.134;2022-09-09T03:44:21;8.13;;;2.17;;
70780;SDS011;59514;48.810;2.134;2022-09-09T03:46:46;9.23;;;2.55;;
70780;SDS011;59514;48.810;2.134;2022-09-09T03:49:11;10.98;;;2.38;;
70780;SDS011;59514;48.810;2.134;2022-09-09T03:51:37;8.98;;;2.47;;
70780;SDS011;59514;48.810;2.134;2022-09-09T03:54:03;9.45;;;2.92;;
70780;SDS011;59514;48.810;2.134;2022-09-09T03:56:30;7.55;;;2.25;;
70780;SDS011;59514;48.810;2.134;2022-09-09T03:58:56;11.32;;;2.60;;
70780;SDS011;59514;48.810;2.134;2022-09-09T04:01:22;10.90;;;2.85;;
70780;SDS011;59514;48.810;2.134;2022-09-09T04:03:47;13.27;;;2.88;;
70780;SDS011;59514;48.810;2.134;2022-09-09T04:06:13;9.63;;;2.20;;
70780;SDS011;59514;48.810;2.134;2022-09-09T04:08:40;9.82;;;3.13;;
70780;SDS011;59514;48.810;2.134;2022-09-09T04:11:06;10.27;;;2.35;;
70780;SDS011;59514;48.810;2.134;2022-09-09T04:13:33;11.95;;;2.70;;
70780;SDS011;59514;48.810;2.134;2022-09-09T04:15:59;11.23;;;3.10;;
70780;SDS011;59514;48.810;2.134;2022-09-09T04:18:26;12.57;;;2.70;;
70780;SDS011;59514;48.810;2.134;2022-09-09T04:20:55;8.77;;;2.13;;
70780;SDS011;59514;48.810;2.134;2022-09-09T04:23:22;8.43;;;2.47;;
70780;SDS011;59514;48.810;2.134;2022-09-09T04:25:52;10.77;;;2.72;;
70780;SDS011;59514;48.810;2.134;2022-09-09T04:28:20;10.45;;;2.80;;
70780;SDS011;59514;48.810;2.134;2022-09-09T04:30:47;9.73;;;2.67;;
70780;SDS011;59514;48.810;2.134;2022-09-09T04:33:13;6.50;;;2.20;;
70780;SDS011;59514;48.810;2.134;2022-09-09T04:35:39;9.70;;;2.25;;
70780;SDS011;59514;48.810;2.134;2022-09-09T04:38:09;13.30;;;2.42;;
70780;SDS011;59514;48.810;2.134;2022-09-09T04:40:35;11.50;;;2.58;;
70780;SDS011;59514;48.810;2.134;2022-09-09T04:43:01;9.40;;;2.55;;
70780;SDS011;59514;48.810;2.134;2022-09-09T04:45:30;11.63;;;3.30;;
70780;SDS011;59514;48.810;2.134;2022-09-09T04:47:56;9.00;;;2.42;;
70780;SDS011;59514;48.810;2.134;2022-09-09T04:50:21;7.93;;;2.45;;
70780;SDS011;59514;48.810;2.134;2022-09-09T04:52:47;10.90;;;2.30;;
70780;SDS011;59514;48.810;2.134;2022-09-09T04:55:13;12.13;;;1.95;;
70780;SDS011;59514;48.810;2.134;2022-09-09T04:57:39;11.30;;;2.97;;
70780;SDS011;59514;48.810;2.134;2022-09-09T05:00:05;8.65;;;2.40;;
70780;SDS011;59514;48.810;2.134;2022-09-09T05:02:31;10.13;;;2.78;;
70780;SDS011;59514;48.810;2.134;2022-09-09T05:04:57;11.90;;;2.80;;
70780;SDS011;59514;48.810;2.134;2022-09-09T05:07:23;7.57;;;2.42;;
70780;SDS011;59514;48.810;2.134;2022-09-09T05:09:48;5.80;;;2.00;;
70780;SDS011;59514;48.810;2.134;2022-09-09T05:12:14;8.52;;;2.40;;
70780;SDS011;59514;48.810;2.134;2022-09-09T05:14:41;8.90;;;2.55;;
70780;SDS011;59514;48.810;2.134;2022-09-09T05:17:07;7.22;;;2.85;;
70780;SDS011;59514;48.810;2.134;2022-09-09T05:19:33;7.80;;;2.35;;
70780;SDS011;59514;48.810;2.134;2022-09-09T05:21:58;8.05;;;2.65;;
70780;SDS011;59514;48.810;2.134;2022-09-09T05:24:23;10.23;;;2.60;;
70780;SDS011;59514;48.810;2.134;2022-09-09T05:26:49;9.48;;;2.58;;
70780;SDS011;59514;48.810;2.134;2022-09-09T05:29:14;9.10;;;2.65;;
70780;SDS011;59514;48.810;2.134;2022-09-09T05:31:39;6.15;;;2.00;;
70780;SDS011;59514;48.810;2.134;2022-09-09T05:34:05;7.07;;;2.60;;
70780;SDS011;59514;48.810;2.134;2022-09-09T05:36:31;11.38;;;2.63;;
70780;SDS011;59514;48.810;2.134;2022-09-09T05:38:56;9.75;;;3.33;;
70780;SDS011;59514;48.810;2.134;2022-09-09T05:41:21;8.02;;;2.25;;
70780;SDS011;59514;48.810;2.134;2022-09-09T05:43:48;7.97;;;2.60;;
70780;SDS011;59514;48.810;2.134;2022-09-09T05:46:17;10.88;;;2.80;;
70780;SDS011;59514;48.810;2.134;2022-09-09T05:48:45;8.57;;;3.00;;
70780;SDS011;59514;48.810;2.134;2022-09-09T05:51:13;9.05;;;3.22;;
70780;SDS011;59514;48.810;2.134;2022-09-09T05:53:43;8.77;;;2.50;;
70780;SDS011;59514;48.810;2.134;2022-09-09T05:56:13;10.13;;;2.88;;
70780;SDS011;59514;48.810;2.134;2022-09-09T05:58:44;12.43;;;2.83;;
70780;SDS011;59514;48.810;2.134;2022-09-09T06:01:18;9.98;;;2.80;;
70780;SDS011;59514;48.810;2.134;2022-09-09T06:03:46;8.85;;;2.60;;
70780;SDS011;59514;48.810;2.134;2022-09-09T06:06:16;9.10;;;2.78;;
70780;SDS011;59514;48.810;2.134;2022-09-09T06:08:46;9.45;;;2.58;;
70780;SDS011;59514;48.810;2.134;2022-09-09T06:11:17;9.73;;;2.85;;
70780;SDS011;59514;48.810;2.134;2022-09-09T06:13:44;7.22;;;1.98;;
70780;SDS011;59514;48.810;2.134;2022-09-09T06:16:11;8.60;;;2.60;;
70780;SDS011;59514;48.810;2.134;2022-09-09T06:18:38;6.43;;;2.17;;
70780;SDS011;59514;48.810;2.134;2022-09-09T06:21:05;8.00;;;2.20;;
70780;SDS011;59514;48.810;2.134;2022-09-09T06:23:33;8.57;;;2.47;;
70780;SDS011;59514;48.810;2.134;2022-09-09T06:26:05;10.40;;;2.33;;
70780;SDS011;59514;48.810;2.134;2022-09-09T06:28:33;9.43;;;2.00;;
70780;SDS011;59514;48.810;2.134;2022-09-09T06:30:59;8.85;;;2.08;;
70780;SDS011;59514;48.810;2.134;2022-09-09T06:33:26;8.43;;;2.50;;
70780;SDS011;59514;48.810;2.134;2022-09-09T06:35:53;7.57;;;2.30;;
70780;SDS011;59514;48.810;2.134;2022-09-09T06:38:19;7.47;;;2.47;;
70780;SDS011;59514;48.810;2.134;2022-09-09T06:40:54;8.73;;;2.13;;
70780;SDS011;59514;48.810;2.134;2022-09-09T06:43:21;8.00;;;2.47;;
70780;SDS011;59514;48.810;2.134;2022-09-09T06:45:57;8.95;;;2.25;;
70780;SDS011;59514;48.810;2.134;2022-09-09T06:48:28;6.43;;;1.65;;
70780;SDS011;59514;48.810;2.134;2022-09-09T06:51:03;8.10;;;2.45;;
70780;SDS011;59514;48.810;2.134;2022-09-09T06:53:30;9.50;;;2.33;;
70780;SDS011;59514;48.810;2.134;2022-09-09T06:55:58;9.77;;;2.53;;
70780;SDS011;59514;48.810;2.134;2022-09-09T06:58:25;10.68;;;2.70;;
70780;SDS011;59514;48.810;2.134;2022-09-09T07:00:51;9.30;;;2.58;;
70780;SDS011;59514;48.810;2.134;2022-09-09T07:03:16;7.50;;;2.22;;
70780;SDS011;59514;48.810;2.134;2022-09-09T07:05:42;6.25;;;2.13;;
70780;SDS011;59514;48.810;2.134;2022-09-09T07:08:09;6.25;;;2.17;;
70780;SDS011;59514;48.810;2.134;2022-09-09T07:10:35;7.93;;;1.90;;
70780;SDS011;59514;48.810;2.134;2022-09-09T07:13:01;6.45;;;2.30;;
70780;SDS011;59514;48.810;2.134;2022-09-09T07:15:27;6.72;;;2.13;;
70780;SDS011;59514;48.810;2.134;2022-09-09T07:17:52;7.22;;;1.88;;
70780;SDS011;59514;48.810;2.134;2022-09-09T07:20:19;8.18;;;1.98;;
70780;SDS011;59514;48.810;2.134;2022-09-09T07:22:45;6.88;;;2.08;;
70780;SDS011;59514;48.810;2.134;2022-09-09T07:25:10;7.25;;;2.03;;
70780;SDS011;59514;48.810;2.134;2022-09-09T07:27:36;6.80;;;1.80;;
70780;SDS011;59514;48.810;2.134;2022-09-09T07:30:01;8.18;;;2.60;;
70780;SDS011;59514;48.810;2.134;2022-09-09T07:32:27;7.10;;;2.08;;
70780;SDS011;59514;48.810;2.134;2022-09-09T07:34:52;8.75;;;2.03;;
70780;SDS011;59514;48.810;2.134;2022-09-09T07:37:18;8.63;;;1.77;;
70780;SDS011;59514;48.810;2.134;2022-09-09T07:39:44;7.85;;;2.15;;
70780;SDS011;59514;48.810;2.134;2022-09-09T07:42:09;9.95;;;2.20;;
70780;SDS011;59514;48.810;2.134;2022-09-09T07:44:39;8.23;;;2.08;;
70780;SDS011;59514;48.810;2.134;2022-09-09T07:47:05;6.97;;;1.92;;
70780;SDS011;59514;48.810;2.134;2022-09-09T07:49:30;6.50;;;1.90;;
70780;SDS011;59514;48.810;2.134;2022-09-09T07:51:57;4.97;;;1.35;;
70780;SDS011;59514;48.810;2.134;2022-09-09T07:54:23;6.35;;;1.77;;
70780;SDS011;59514;48.810;2.134;2022-09-09T07:56:48;8.20;;;2.60;;
70780;SDS011;59514;48.810;2.134;2022-09-09T07:59:15;8.80;;;2.03;;
70780;SDS011;59514;48.810;2.134;2022-09-09T08:01:45;4.00;;;1.40;;
70780;SDS011;59514;48.810;2.134;2022-09-09T08:04:14;4.65;;;2.03;;
70780;SDS011;59514;48.810;2.134;2022-09-09T08:06:46;6.57;;;2.38;;
70780;SDS011;59514;48.810;2.134;2022-09-09T08:09:18;8.23;;;2.00;;
70780;SDS011;59514;48.810;2.134;2022-09-09T08:11:44;6.90;;;1.92;;
70780;SDS011;59514;48.810;2.134;2022-09-09T08:14:10;6.65;;;1.60;;
70780;SDS011;59514;48.810;2.134;2022-09-09T08:16:37;4.95;;;1.95;;
70780;SDS011;59514;48.810;2.134;2022-09-09T08:19:07;8.07;;;2.47;;
70780;SDS011;59514;48.810;2.134;2022-09-09T08:21:34;6.88;;;1.92;;
70780;SDS011;59514;48.810;2.134;2022-09-09T08:24:01;7.00;;;2.13;;
70780;SDS011;59514;48.810;2.134;2022-09-09T08:26:31;4.45;;;1.90;;
70780;SDS011;59514;48.810;2.134;2022-09-09T08:29:02;4.70;;;1.70;;
70780;SDS011;59514;48.810;2.134;2022-09-09T08:31:39;6.57;;;1.75;;
70780;SDS011;59514;48.810;2.134;2022-09-09T08:34:05;6.70;;;1.60;;
70780;SDS011;59514;48.810;2.134;2022-09-09T08:36:34;7.90;;;2.08;;
70780;SDS011;59514;48.810;2.134;2022-09-09T08:39:03;4.05;;;1.50;;
70780;SDS011;59514;48.810;2.134;2022-09-09T08:44:22;4.45;;;1.83;;
70780;SDS011;59514;48.810;2.134;2022-09-09T08:47:06;5.97;;;1.88;;
70780;SDS011;59514;48.810;2.134;2022-09-09T08:49:57;3.47;;;1.55;;
70780;SDS011;59514;48.810;2.134;2022-09-09T08:52:42;6.55;;;2.20;;
70780;SDS011;59514;48.810;2.134;2022-09-09T08:55:20;5.60;;;1.75;;
70780;SDS011;59514;48.810;2.134;2022-09-09T08:57:48;6.25;;;1.88;;
70780;SDS011;59514;48.810;2.134;2022-09-09T09:00:17;7.50;;;1.30;;
70780;SDS011;59514;48.810;2.134;2022-09-09T09:02:46;6.05;;;1.95;;
70780;SDS011;59514;48.810;2.134;2022-09-09T09:10:31;5.90;;;1.53;;
70780;SDS011;59514;48.810;2.134;2022-09-09T09:13:07;4.65;;;1.40;;
70780;SDS011;59514;48.810;2.134;2022-09-09T09:15:38;7.15;;;1.92;;
70780;SDS011;59514;48.810;2.134;2022-09-09T09:18:07;7.43;;;1.77;;
70780;SDS011;59514;48.810;2.134;2022-09-09T09:20:49;5.70;;;1.60;;
70780;SDS011;59514;48.810;2.134;2022-09-09T09:23:21;4.53;;;1.23;;
70780;SDS011;59514;48.810;2.134;2022-09-09T09:25:48;4.68;;;1.50;;
70780;SDS011;59514;48.810;2.134;2022-09-09T09:28:18;6.68;;;1.38;;
70780;SDS011;59514;48.810;2.134;2022-09-09T09:35:57;5.75;;;1.70;;
70780;SDS011;59514;48.810;2.134;2022-09-09T09:38:25;7.07;;;1.92;;
70780;SDS011;59514;48.810;2.134;2022-09-09T09:40:53;7.78;;;1.63;;
70780;SDS011;59514;48.810;2.134;2022-09-09T09:43:24;3.67;;;1.60;;
70780;SDS011;59514;48.810;2.134;2022-09-09T09:45:52;4.30;;;1.38;;
70780;SDS011;59514;48.810;2.134;2022-09-09T09:48:18;6.00;;;1.50;;
70780;SDS011;59514;48.810;2.134;2022-09-09T09:53:32;4.40;;;1.52;;
70780;SDS011;59514;48.810;2.134;2022-09-09T09:56:00;6.47;;;1.50;;
70780;SDS011;59514;48.810;2.134;2022-09-09T09:58:48;5.82;;;1.88;;
70780;SDS011;59514;48.810;2.134;2022-09-09T10:01:25;7.28;;;1.50;;
70780;SDS011;59514;48.810;2.134;2022-09-09T10:03:59;5.95;;;1.65;;
70780;SDS011;59514;48.810;2.134;2022-09-09T10:06:35;5.72;;;2.08;;
70780;SDS011;59514;48.810;2.134;2022-09-09T10:09:03;6.82;;;1.40;;
70780;SDS011;59514;48.810;2.134;2022-09-09T10:11:54;3.97;;;1.42;;
70780;SDS011;59514;48.810;2.134;2022-09-09T10:14:30;5.80;;;1.30;;
70780;SDS011;59514;48.810;2.134;2022-09-09T10:17:10;7.68;;;1.80;;
70780;SDS011;59514;48.810;2.134;2022-09-09T10:19:39;3.53;;;1.23;;
70780;SDS011;59514;48.810;2.134;2022-09-09T10:22:22;4.43;;;1.30;;
70780;SDS011;59514;48.810;2.134;2022-09-09T10:27:51;4.60;;;1.83;;
70780;SDS011;59514;48.810;2.134;2022-09-09T10:38:46;5.47;;;1.30;;
70780;SDS011;59514;48.810;2.134;2022-09-09T10:41:16;6.88;;;1.85;;
70780;SDS011;59514;48.810;2.134;2022-09-09T10:52:15;5.97;;;1.20;;
70780;SDS011;59514;48.810;2.134;2022-09-09T10:55:08;5.47;;;1.52;;
70780;SDS011;59514;48.810;2.134;2022-09-09T11:00:13;3.58;;;1.60;;
70780;SDS011;59514;48.810;2.134;2022-09-09T11:02:44;4.90;;;1.25;;
70780;SDS011;59514;48.810;2.134;2022-09-09T11:07:49;5.43;;;1.70;;
70780;SDS011;59514;48.810;2.134;2022-09-09T11:10:23;3.28;;;1.42;;
70780;SDS011;59514;48.810;2.134;2022-09-09T11:12:57;2.92;;;1.05;;
70780;SDS011;59514;48.810;2.134;2022-09-09T11:18:06;4.90;;;1.27;;
70780;SDS011;59514;48.810;2.134;2022-09-09T11:20:38;6.72;;;1.42;;
70780;SDS011;59514;48.810;2.134;2022-09-09T11:23:05;4.57;;;1.33;;
70780;SDS011;59514;48.810;2.134;2022-09-09T11:25:42;4.72;;;1.48;;
70780;SDS011;59514;48.810;2.134;2022-09-09T11:40:17;5.95;;;1.50;;
70780;SDS011;59514;48.810;2.134;2022-09-09T11:42:47;7.25;;;1.60;;
70780;SDS011;59514;48.810;2.134;2022-09-09T11:45:22;6.40;;;1.38;;
70780;SDS011;59514;48.810;2.134;2022-09-09T11:47:51;4.35;;;1.42;;
70780;SDS011;59514;48.810;2.134;2022-09-09T11:52:49;4.23;;;1.40;;
70780;SDS011;59514;48.810;2.134;2022-09-09T11:57:59;3.63;;;1.23;;
70780;SDS011;59514;48.810;2.134;2022-09-09T12:00:33;5.38;;;1.30;;
70780;SDS011;59514;48.810;2.134;2022-09-09T12:02:59;5.80;;;2.00;;
70780;SDS011;59514;48.810;2.134;2022-09-09T12:05:34;5.38;;;1.60;;
70780;SDS011;59514;48.810;2.134;2022-09-09T12:08:11;3.85;;;1.75;;
70780;SDS011;59514;48.810;2.134;2022-09-09T12:10:52;4.50;;;1.42;;
70780;SDS011;59514;48.810;2.134;2022-09-09T12:13:21;4.28;;;1.60;;
70780;SDS011;59514;48.810;2.134;2022-09-09T12:15:52;4.63;;;1.83;;
70780;SDS011;59514;48.810;2.134;2022-09-09T12:26:47;4.70;;;1.38;;
70780;SDS011;59514;48.810;2.134;2022-09-09T12:32:15;5.95;;;1.48;;
70780;SDS011;59514;48.810;2.134;2022-09-09T12:34:44;7.72;;;2.10;;
70780;SDS011;59514;48.810;2.134;2022-09-09T12:37:27;4.97;;;1.35;;
70780;SDS011;59514;48.810;2.134;2022-09-09T12:39:58;5.20;;;2.08;;
70780;SDS011;59514;48.810;2.134;2022-09-09T12:42:27;6.03;;;1.85;;
70780;SDS011;59514;48.810;2.134;2022-09-09T12:47:36;6.68;;;1.70;;
70780;SDS011;59514;48.810;2.134;2022-09-09T12:50:14;4.30;;;1.80;;
70780;SDS011;59514;48.810;2.134;2022-09-09T12:52:42;8.18;;;2.03;;
70780;SDS011;59514;48.810;2.134;2022-09-09T12:55:15;6.28;;;1.85;;
70780;SDS011;59514;48.810;2.134;2022-09-09T12:57:42;4.07;;;1.63;;
70780;SDS011;59514;48.810;2.134;2022-09-09T13:00:15;5.35;;;1.92;;
70780;SDS011;59514;48.810;2.134;2022-09-09T13:02:46;5.95;;;1.70;;
70780;SDS011;59514;48.810;2.134;2022-09-09T13:05:21;8.75;;;2.05;;
70780;SDS011;59514;48.810;2.134;2022-09-09T13:07:49;6.78;;;1.83;;
70780;SDS011;59514;48.810;2.134;2022-09-09T13:10:19;6.75;;;1.95;;
70780;SDS011;59514;48.810;2.134;2022-09-09T13:12:49;5.30;;;1.45;;
70780;SDS011;59514;48.810;2.134;2022-09-09T13:15:19;7.32;;;1.70;;
70780;SDS011;59514;48.810;2.134;2022-09-09T13:18:06;4.55;;;1.90;;
70780;SDS011;59514;48.810;2.134;2022-09-09T13:20:38;5.63;;;2.05;;
70780;SDS011;59514;48.810;2.134;2022-09-09T13:23:04;5.53;;;2.10;;
70780;SDS011;59514;48.810;2.134;2022-09-09T13:25:30;4.90;;;1.80;;
70780;SDS011;59514;48.810;2.134;2022-09-09T13:35:50;4.28;;;2.03;;
70780;SDS011;59514;48.810;2.134;2022-09-09T13:38:20;5.00;;;1.65;;
70780;SDS011;59514;48.810;2.134;2022-09-09T13:43:28;5.50;;;1.95;;
70780;SDS011;59514;48.810;2.134;2022-09-09T13:45:57;7.03;;;1.80;;
70780;SDS011;59514;48.810;2.134;2022-09-09T13:48:26;3.95;;;1.67;;
70780;SDS011;59514;48.810;2.134;2022-09-09T13:50:55;4.40;;;1.90;;
70780;SDS011;59514;48.810;2.134;2022-09-09T13:53:22;3.85;;;2.40;;
70780;SDS011;59514;48.810;2.134;2022-09-09T13:55:47;5.17;;;2.10;;
70780;SDS011;59514;48.810;2.134;2022-09-09T13:58:16;5.32;;;1.70;;
70780;SDS011;59514;48.810;2.134;2022-09-09T14:00:46;3.75;;;1.90;;
70780;SDS011;59514;48.810;2.134;2022-09-09T14:03:12;7.65;;;1.98;;
70780;SDS011;59514;48.810;2.134;2022-09-09T14:05:38;7.88;;;1.52;;
70780;SDS011;59514;48.810;2.134;2022-09-09T14:08:04;6.40;;;1.60;;
70780;SDS011;59514;48.810;2.134;2022-09-09T14:10:31;5.55;;;1.70;;
70780;SDS011;59514;48.810;2.134;2022-09-09T14:12:56;4.82;;;2.10;;
70780;SDS011;59514;48.810;2.134;2022-09-09T14:15:22;6.85;;;2.20;;
70780;SDS011;59514;48.810;2.134;2022-09-09T14:17:47;6.20;;;1.77;;
70780;SDS011;59514;48.810;2.134;2022-09-09T14:20:13;4.68;;;1.63;;
70780;SDS011;59514;48.810;2.134;2022-09-09T14:22:40;3.05;;;1.55;;
70780;SDS011;59514;48.810;2.134;2022-09-09T14:25:06;4.82;;;1.42;;
70780;SDS011;59514;48.810;2.134;2022-09-09T14:27:32;5.90;;;1.80;;
70780;SDS011;59514;48.810;2.134;2022-09-09T14:29:58;3.35;;;1.60;;
70780;SDS011;59514;48.810;2.134;2022-09-09T14:32:25;5.80;;;1.95;;
70780;SDS011;59514;48.810;2.134;2022-09-09T14:34:51;5.22;;;1.40;;
70780;SDS011;59514;48.810;2.134;2022-09-09T14:37:16;6.45;;;1.73;;
70780;SDS011;59514;48.810;2.134;2022-09-09T14:39:42;3.25;;;1.60;;
70780;SDS011;59514;48.810;2.134;2022-09-09T14:42:09;5.15;;;1.73;;
70780;SDS011;59514;48.810;2.134;2022-09-09T14:44:36;2.97;;;1.35;;
70780;SDS011;59514;48.810;2.134;2022-09-09T14:47:03;4.03;;;1.52;;
70780;SDS011;59514;48.810;2.134;2022-09-09T14:49:29;4.45;;;1.60;;
70780;SDS011;59514;48.810;2.134;2022-09-09T14:51:54;5.82;;;1.80;;
70780;SDS011;59514;48.810;2.134;2022-09-09T14:54:19;3.03;;;1.25;;
70780;SDS011;59514;48.810;2.134;2022-09-09T14:56:46;3.80;;;1.45;;
70780;SDS011;59514;48.810;2.134;2022-09-09T14:59:12;4.50;;;1.27;;
70780;SDS011;59514;48.810;2.134;2022-09-09T15:01:38;6.05;;;1.38;;
70780;SDS011;59514;48.810;2.134;2022-09-09T15:04:03;2.90;;;1.38;;
70780;SDS011;59514;48.810;2.134;2022-09-09T15:06:31;3.80;;;1.10;;
70780;SDS011;59514;48.810;2.134;2022-09-09T15:09:03;3.72;;;1.30;;
70780;SDS011;59514;48.810;2.134;2022-09-09T15:11:29;4.18;;;1.45;;
70780;SDS011;59514;48.810;2.134;2022-09-09T15:13:57;4.70;;;1.40;;
70780;SDS011;59514;48.810;2.134;2022-09-09T15:16:24;3.05;;;1.20;;
70780;SDS011;59514;48.810;2.134;2022-09-09T15:18:52;2.78;;;1.58;;
70780;SDS011;59514;48.810;2.134;2022-09-09T15:21:19;5.25;;;1.42;;
70780;SDS011;59514;48.810;2.134;2022-09-09T15:23:46;3.10;;;1.50;;
70780;SDS011;59514;48.810;2.134;2022-09-09T15:26:13;5.38;;;1.23;;
70780;SDS011;59514;48.810;2.134;2022-09-09T15:28:40;4.18;;;1.40;;
70780;SDS011;59514;48.810;2.134;2022-09-09T15:31:07;3.45;;;1.45;;
70780;SDS011;59514;48.810;2.134;2022-09-09T15:33:36;4.00;;;1.55;;
70780;SDS011;59514;48.810;2.134;2022-09-09T15:36:21;3.85;;;1.60;;
70780;SDS011;59514;48.810;2.134;2022-09-09T15:38:48;4.20;;;1.20;;
70780;SDS011;59514;48.810;2.134;2022-09-09T15:41:15;4.22;;;1.60;;
70780;SDS011;59514;48.810;2.134;2022-09-09T15:43:45;4.40;;;1.30;;
70780;SDS011;59514;48.810;2.134;2022-09-09T15:46:21;4.97;;;1.58;;
70780;SDS011;59514;48.810;2.134;2022-09-09T15:51:35;4.25;;;1.42;;
70780;SDS011;59514;48.810;2.134;2022-09-09T15:54:05;4.47;;;1.50;;
70780;SDS011;59514;48.810;2.134;2022-09-09T15:56:31;5.97;;;1.90;;
70780;SDS011;59514;48.810;2.134;2022-09-09T15:58:57;4.43;;;1.42;;
70780;SDS011;59514;48.810;2.134;2022-09-09T16:01:24;4.22;;;1.15;;
70780;SDS011;59514;48.810;2.134;2022-09-09T16:03:51;5.50;;;1.52;;
70780;SDS011;59514;48.810;2.134;2022-09-09T16:06:18;3.17;;;1.15;;
70780;SDS011;59514;48.810;2.134;2022-09-09T16:08:47;4.60;;;1.70;;
70780;SDS011;59514;48.810;2.134;2022-09-09T16:11:18;3.38;;;1.50;;
70780;SDS011;59514;48.810;2.134;2022-09-09T16:13:46;4.05;;;1.25;;
70780;SDS011;59514;48.810;2.134;2022-09-09T16:16:13;6.07;;;1.73;;
70780;SDS011;59514;48.810;2.134;2022-09-09T16:18:41;5.20;;;1.67;;
70780;SDS011;59514;48.810;2.134;2022-09-09T16:21:15;4.32;;;1.27;;
70780;SDS011;59514;48.810;2.134;2022-09-09T16:23:43;4.57;;;1.20;;
70780;SDS011;59514;48.810;2.134;2022-09-09T16:26:12;4.50;;;1.33;;
70780;SDS011;59514;48.810;2.134;2022-09-09T16:28:39;4.10;;;1.83;;
70780;SDS011;59514;48.810;2.134;2022-09-09T16:31:09;4.88;;;1.67;;
70780;SDS011;59514;48.810;2.134;2022-09-09T16:33:38;4.93;;;1.70;;
70780;SDS011;59514;48.810;2.134;2022-09-09T16:36:08;4.72;;;1.40;;
70780;SDS011;59514;48.810;2.134;2022-09-09T16:38:35;3.42;;;1.25;;
70780;SDS011;59514;48.810;2.134;2022-09-09T16:41:02;3.80;;;1.48;;
70780;SDS011;59514;48.810;2.134;2022-09-09T16:43:29;2.33;;;1.33;;
70780;SDS011;59514;48.810;2.134;2022-09-09T16:45:55;2.83;;;1.38;;
70780;SDS011;59514;48.810;2.134;2022-09-09T16:48:20;4.28;;;1.70;;
70780;SDS011;59514;48.810;2.134;2022-09-09T16:50:45;4.10;;;1.13;;
70780;SDS011;59514;48.810;2.134;2022-09-09T16:53:11;2.55;;;1.27;;
70780;SDS011;59514;48.810;2.134;2022-09-09T16:55:39;4.10;;;1.05;;
70780;SDS011;59514;48.810;2.134;2022-09-09T16:58:05;4.00;;;1.40;;
70780;SDS011;59514;48.810;2.134;2022-09-09T17:00:31;2.78;;;1.08;;
70780;SDS011;59514;48.810;2.134;2022-09-09T17:02:56;2.92;;;1.63;;